createdAt,value
2022-12-18T00:02:16.021Z,1.25
2022-12-18T00:05:09.531Z,1.98
2022-12-18T00:08:03.142Z,1.80
2022-12-18T00:11:07.103Z,2.88
2022-12-18T00:14:01.912Z,3.67
2022-12-18T00:16:56.262Z,2.13
2022-12-18T00:19:49.013Z,1.48
2022-12-18T00:22:42.339Z,2.08
2022-12-18T00:25:36.436Z,2.15
2022-12-18T00:28:29.448Z,2.30
2022-12-18T00:31:23.886Z,1.92
2022-12-18T00:34:18.235Z,1.48
2022-12-18T00:37:13.414Z,1.50
2022-12-18T00:40:10.737Z,2.20
2022-12-18T00:43:03.299Z,3.35
2022-12-18T00:45:56.592Z,1.92
2022-12-18T00:48:50.437Z,1.50
2022-12-18T00:51:45.228Z,2.03
2022-12-18T00:54:38.006Z,2.53
2022-12-18T00:57:31.217Z,1.80
2022-12-18T01:00:24.476Z,2.20
2022-12-18T01:03:19.310Z,1.80
2022-12-18T01:06:13.989Z,1.50
2022-12-18T01:09:08.726Z,1.52
2022-12-18T01:12:02.225Z,3.35
2022-12-18T01:14:55.394Z,2.95
2022-12-18T01:17:48.274Z,1.50
2022-12-18T01:20:40.945Z,2.20
2022-12-18T01:23:34.077Z,2.38
2022-12-18T01:26:30.533Z,1.92
2022-12-18T01:29:24.374Z,2.72
2022-12-18T01:32:17.011Z,2.42
2022-12-18T01:35:10.464Z,1.60
2022-12-18T01:38:03.035Z,2.22
2022-12-18T01:40:59.553Z,2.10
2022-12-18T01:43:58.134Z,1.93
2022-12-18T01:46:51.274Z,2.05
2022-12-18T01:49:44.132Z,1.65
2022-12-18T01:52:39.236Z,3.25
2022-12-18T01:55:37.282Z,2.13
2022-12-18T01:58:37.525Z,1.73
2022-12-18T02:01:32.374Z,3.10
2022-12-18T02:04:28.276Z,1.83
2022-12-18T02:07:31.477Z,1.48
2022-12-18T02:10:28.945Z,2.17
2022-12-18T02:13:28.417Z,1.77
2022-12-18T02:16:27.358Z,1.55
2022-12-18T02:19:39.978Z,1.33
2022-12-18T02:22:41.622Z,2.70
2022-12-18T02:25:48.417Z,2.13
2022-12-18T02:28:46.830Z,1.90
2022-12-18T02:31:44.238Z,4.03
2022-12-18T02:34:40.291Z,1.60
2022-12-18T02:37:34.260Z,2.30
2022-12-18T02:40:30.222Z,2.15
2022-12-18T02:43:23.979Z,2.03
2022-12-18T02:46:33.608Z,1.48
2022-12-18T02:49:43.835Z,1.90
2022-12-18T02:52:43.941Z,1.95
2022-12-18T02:55:48.124Z,1.85
2022-12-18T02:58:49.319Z,1.83
2022-12-18T03:01:52.121Z,2.17
2022-12-18T03:04:50.452Z,2.17
2022-12-18T03:07:49.825Z,1.73
2022-12-18T03:10:47.763Z,1.58
2022-12-18T03:13:45.605Z,1.52
2022-12-18T03:16:39.067Z,2.63
2022-12-18T03:19:35.349Z,2.17
2022-12-18T03:22:31.751Z,1.80
2022-12-18T03:25:27.597Z,1.65
2022-12-18T03:28:23.039Z,1.57
2022-12-18T03:31:17.192Z,1.88
2022-12-18T03:34:17.135Z,2.03
2022-12-18T03:37:11.954Z,2.13
2022-12-18T03:40:07.181Z,1.88
2022-12-18T03:43:05.411Z,1.75
2022-12-18T03:46:08.170Z,2.05
2022-12-18T03:49:07.969Z,2.55
2022-12-18T03:52:05.711Z,1.77
2022-12-18T03:55:03.819Z,1.47
2022-12-18T03:57:58.507Z,1.45
2022-12-18T04:00:54.346Z,1.53
2022-12-18T04:03:51.028Z,1.65
2022-12-18T04:06:45.868Z,1.40
2022-12-18T04:09:41.897Z,1.65
2022-12-18T04:12:36.360Z,2.03
2022-12-18T04:15:29.566Z,1.80
2022-12-18T04:18:22.391Z,2.00
2022-12-18T04:21:15.231Z,2.08
2022-12-18T04:24:09.258Z,2.33
2022-12-18T04:27:02.697Z,1.48
2022-12-18T04:29:57.760Z,2.03
2022-12-18T04:32:52.448Z,1.60
2022-12-18T04:35:45.005Z,1.75
2022-12-18T04:38:38.253Z,1.80
2022-12-18T04:41:31.460Z,1.83
2022-12-18T04:44:24.522Z,1.75
2022-12-18T04:47:18.848Z,2.10
2022-12-18T04:50:12.121Z,1.60
2022-12-18T04:53:05.557Z,1.73
2022-12-18T04:56:10.083Z,1.87
2022-12-18T04:59:03.345Z,1.25
2022-12-18T05:01:56.134Z,2.10
2022-12-18T05:04:50.620Z,2.58
2022-12-18T05:07:43.347Z,1.30
2022-12-18T05:10:38.256Z,1.42
2022-12-18T05:13:31.861Z,1.93
2022-12-18T05:16:25.951Z,1.73
2022-12-18T05:19:19.294Z,1.77
2022-12-18T05:22:13.836Z,1.83
2022-12-18T05:25:07.953Z,3.65
2022-12-18T05:28:01.575Z,2.15
2022-12-18T05:30:56.143Z,1.67
2022-12-18T05:33:48.927Z,1.53
2022-12-18T05:36:41.890Z,2.03
2022-12-18T05:39:36.698Z,1.10
2022-12-18T05:42:29.207Z,2.40
2022-12-18T05:45:22.583Z,2.05
2022-12-18T05:48:15.234Z,1.40
2022-12-18T05:51:09.999Z,1.80
2022-12-18T05:54:03.343Z,1.57
2022-12-18T05:56:58.808Z,1.40
2022-12-18T05:59:52.258Z,1.67
2022-12-18T06:02:48.859Z,1.83
2022-12-18T06:05:45.311Z,2.28
2022-12-18T06:08:42.913Z,1.35
2022-12-18T06:11:39.979Z,1.57
2022-12-18T06:14:34.618Z,1.80
2022-12-18T06:17:30.361Z,1.83
2022-12-18T06:20:23.514Z,1.93
2022-12-18T06:23:16.486Z,1.65
2022-12-18T06:26:10.134Z,1.65
2022-12-18T06:29:03.444Z,1.57
2022-12-18T06:35:09.950Z,1.67
2022-12-18T06:38:04.001Z,1.80
2022-12-18T06:40:57.622Z,2.08
2022-12-18T06:43:50.497Z,2.37
2022-12-18T06:46:43.415Z,1.67
2022-12-18T06:49:37.673Z,2.38
2022-12-18T06:52:33.211Z,2.05
2022-12-18T06:55:26.428Z,2.00
2022-12-18T06:58:19.579Z,1.73
2022-12-18T07:01:13.925Z,2.60
2022-12-18T07:04:07.416Z,1.30
2022-12-18T07:07:02.113Z,1.60
2022-12-18T07:09:55.440Z,1.77
2022-12-18T07:12:48.749Z,1.97
2022-12-18T07:15:41.750Z,1.67
2022-12-18T07:18:36.573Z,1.73
2022-12-18T07:21:29.587Z,2.00
2022-12-18T07:24:23.574Z,1.33
2022-12-18T07:27:16.797Z,1.10
2022-12-18T07:30:11.877Z,1.87
2022-12-18T07:33:05.208Z,2.00
2022-12-18T07:35:58.179Z,1.95
2022-12-18T07:38:52.810Z,1.73
2022-12-18T07:42:08.048Z,1.58
2022-12-18T07:45:02.075Z,1.75
2022-12-18T07:47:55.349Z,1.27
2022-12-18T07:50:48.607Z,1.58
2022-12-18T07:53:42.557Z,1.92
2022-12-18T07:56:35.936Z,1.77
2022-12-18T07:59:31.097Z,1.75
2022-12-18T08:02:25.134Z,1.37
2022-12-18T08:05:18.837Z,1.83
2022-12-18T08:08:12.475Z,2.03
2022-12-18T08:11:05.767Z,2.50
2022-12-18T08:13:59.705Z,1.73
2022-12-18T08:16:53.870Z,2.05
2022-12-18T08:19:47.314Z,1.80
2022-12-18T08:22:40.802Z,2.10
2022-12-18T08:25:33.532Z,2.00
2022-12-18T08:28:27.055Z,1.67
2022-12-18T08:31:21.319Z,1.98
2022-12-18T08:34:16.767Z,1.67
2022-12-18T08:37:09.695Z,1.90
2022-12-18T08:40:02.809Z,1.60
2022-12-18T08:43:12.919Z,2.40
2022-12-18T08:46:07.065Z,1.80
2022-12-18T08:49:00.882Z,2.30
2022-12-18T08:51:58.252Z,2.17
2022-12-18T08:54:51.430Z,1.60
2022-12-18T08:57:45.102Z,1.97
2022-12-18T09:00:38.675Z,1.63
2022-12-18T09:03:31.908Z,2.90
2022-12-18T09:06:27.419Z,2.47
2022-12-18T09:09:22.099Z,1.77
2022-12-18T09:12:15.372Z,1.80
2022-12-18T09:15:08.995Z,1.92
2022-12-18T09:18:02.400Z,1.90
2022-12-18T09:20:55.642Z,3.23
2022-12-18T09:23:51.999Z,1.70
2022-12-18T09:26:47.737Z,2.87
2022-12-18T09:29:41.253Z,3.27
2022-12-18T09:32:34.257Z,1.92
2022-12-18T09:35:28.677Z,2.23
2022-12-18T09:38:22.018Z,1.70
2022-12-18T09:41:35.517Z,2.13
2022-12-18T09:44:37.750Z,2.15
2022-12-18T09:47:39.608Z,3.00
2022-12-18T09:50:37.555Z,2.80
2022-12-18T09:53:34.682Z,2.20
2022-12-18T09:56:31.420Z,3.23
2022-12-18T09:59:28.553Z,1.97
2022-12-18T10:02:25.704Z,2.10
2022-12-18T10:05:21.276Z,2.85
2022-12-18T10:08:21.587Z,1.75
2022-12-18T10:11:39.838Z,3.30
2022-12-18T10:14:39.104Z,2.23
2022-12-18T10:17:41.608Z,2.23
2022-12-18T10:20:40.714Z,1.43
2022-12-18T10:23:46.397Z,2.77
2022-12-18T10:26:43.134Z,4.10
2022-12-18T10:29:36.536Z,2.30
2022-12-18T10:32:31.039Z,2.60
2022-12-18T10:35:27.715Z,2.40
2022-12-18T10:38:27.179Z,1.83
2022-12-18T10:41:29.384Z,2.20
2022-12-18T10:44:24.849Z,2.08
2022-12-18T10:47:20.535Z,2.17
2022-12-18T10:50:28.643Z,2.67
2022-12-18T10:53:32.907Z,2.47
2022-12-18T10:56:29.043Z,2.43
2022-12-18T10:59:22.539Z,2.77
2022-12-18T11:02:29.216Z,3.17
2022-12-18T11:05:29.933Z,2.20
2022-12-18T11:08:24.683Z,2.73
2022-12-18T11:11:22.844Z,2.97
2022-12-18T11:14:21.383Z,2.40
2022-12-18T11:17:26.093Z,1.80
2022-12-18T11:20:29.996Z,3.33
2022-12-18T11:23:25.304Z,2.83
2022-12-18T11:26:20.045Z,2.57
2022-12-18T11:29:20.283Z,3.47
2022-12-18T11:32:31.324Z,1.95
2022-12-18T11:35:39.050Z,1.85
2022-12-18T11:38:36.689Z,3.20
2022-12-18T11:41:53.751Z,2.60
2022-12-18T11:44:52.079Z,2.63
2022-12-18T11:47:51.545Z,2.80
2022-12-18T11:50:51.461Z,2.63
2022-12-18T11:53:44.836Z,3.05
2022-12-18T11:56:44.867Z,2.43
2022-12-18T11:59:47.148Z,2.80
2022-12-18T12:03:19.402Z,2.23
2022-12-18T12:06:21.389Z,3.03
2022-12-18T12:09:21.410Z,2.53
2022-12-18T12:12:48.659Z,2.85
2022-12-18T12:15:54.299Z,3.45
2022-12-18T12:19:03.875Z,3.33
2022-12-18T12:22:06.334Z,2.10
2022-12-18T12:25:13.960Z,2.10
2022-12-18T12:28:21.323Z,3.28
2022-12-18T12:31:29.885Z,2.47
2022-12-18T12:34:27.552Z,2.80
2022-12-18T12:37:34.875Z,2.50
2022-12-18T12:43:51.470Z,3.00
2022-12-18T12:46:46.065Z,1.90
2022-12-18T12:49:42.049Z,2.42
2022-12-18T12:52:42.067Z,2.03
2022-12-18T12:55:36.209Z,2.47
2022-12-18T12:58:38.803Z,3.22
2022-12-18T13:01:42.534Z,2.77
2022-12-18T13:04:42.996Z,2.47
2022-12-18T13:07:42.276Z,3.07
2022-12-18T13:10:37.250Z,2.67
2022-12-18T13:13:50.579Z,2.47
2022-12-18T13:16:46.101Z,3.43
2022-12-18T13:19:39.568Z,3.07
2022-12-18T13:22:36.856Z,3.90
2022-12-18T13:25:35.782Z,3.00
2022-12-18T13:28:54.477Z,3.10
2022-12-18T13:32:03.062Z,3.83
2022-12-18T13:35:39.938Z,2.70
2022-12-18T13:38:38.864Z,2.13
2022-12-18T13:41:31.643Z,2.67
2022-12-18T13:44:30.384Z,3.70
2022-12-18T13:47:34.297Z,2.97
2022-12-18T13:50:35.412Z,2.10
2022-12-18T13:53:33.945Z,2.80
2022-12-18T13:56:29.403Z,3.58
2022-12-18T13:59:24.738Z,2.80
2022-12-18T14:02:22.776Z,6.10
2022-12-18T14:05:25.533Z,2.00
2022-12-18T14:08:20.009Z,14.32
2022-12-18T14:11:22.668Z,11.68
2022-12-18T14:14:16.880Z,13.30
2022-12-18T14:17:12.207Z,14.70
2022-12-18T14:20:14.505Z,16.30
2022-12-18T14:23:28.750Z,11.68
2022-12-18T14:26:25.520Z,10.13
2022-12-18T14:29:27.687Z,20.55
2022-12-18T14:32:22.387Z,13.40
2022-12-18T14:35:15.773Z,12.73
2022-12-18T14:38:23.353Z,16.13
2022-12-18T14:41:18.860Z,14.68
2022-12-18T14:44:14.903Z,14.45
2022-12-18T14:47:15.294Z,10.77
2022-12-18T14:50:15.676Z,13.93
2022-12-18T14:53:08.563Z,13.65
2022-12-18T14:56:04.377Z,18.50
2022-12-18T14:58:59.989Z,11.73
2022-12-18T15:02:02.845Z,14.85
2022-12-18T15:05:04.375Z,12.45
2022-12-18T15:08:01.400Z,13.90
2022-12-18T15:10:55.020Z,12.48
2022-12-18T15:13:49.326Z,13.75
2022-12-18T15:16:46.068Z,11.43
2022-12-18T15:19:42.450Z,13.32
2022-12-18T15:22:37.687Z,12.35
2022-12-18T15:25:37.831Z,12.10
2022-12-18T15:28:36.760Z,14.13
2022-12-18T15:31:35.981Z,12.20
2022-12-18T15:34:29.787Z,15.07
2022-12-18T15:37:22.514Z,10.63
2022-12-18T15:40:17.985Z,13.35
2022-12-18T15:43:43.791Z,14.63
2022-12-18T15:46:38.117Z,11.25
2022-12-18T15:49:31.766Z,12.20
2022-12-18T15:52:27.183Z,11.82
2022-12-18T15:55:40.103Z,8.05
2022-12-18T15:58:33.856Z,11.50
2022-12-18T16:01:29.642Z,11.13
2022-12-18T16:04:26.231Z,12.30
2022-12-18T16:07:24.707Z,9.90
2022-12-18T16:10:19.627Z,12.20
2022-12-18T16:13:13.627Z,10.35
2022-12-18T16:16:07.002Z,11.98
2022-12-18T16:18:59.997Z,10.45
2022-12-18T16:21:58.506Z,12.38
2022-12-18T16:24:52.814Z,10.15
2022-12-18T16:27:45.934Z,13.73
2022-12-18T16:30:41.239Z,13.00
2022-12-18T16:33:34.685Z,11.10
2022-12-18T16:36:27.965Z,17.63
2022-12-18T16:39:22.498Z,9.25
2022-12-18T16:42:19.941Z,10.68
2022-12-18T16:45:17.029Z,11.10
2022-12-18T16:48:09.782Z,8.45
2022-12-18T16:51:04.866Z,9.20
2022-12-18T16:53:58.917Z,9.27
2022-12-18T16:56:54.389Z,9.55
2022-12-18T16:59:48.197Z,8.43
2022-12-18T17:02:42.250Z,6.95
2022-12-18T17:05:35.794Z,9.18
2022-12-18T17:08:28.615Z,8.68
2022-12-18T17:11:22.029Z,9.05
2022-12-18T17:14:18.203Z,8.10
2022-12-18T17:17:21.313Z,9.02
2022-12-18T17:20:14.560Z,8.88
2022-12-18T17:23:07.763Z,9.77
2022-12-18T17:26:01.183Z,7.60
2022-12-18T17:28:54.015Z,7.75
2022-12-18T17:31:48.986Z,8.07
2022-12-18T17:34:41.719Z,7.80
2022-12-18T17:37:34.693Z,7.32
2022-12-18T17:40:28.341Z,7.93
2022-12-18T17:43:21.765Z,7.93
2022-12-18T17:46:16.553Z,9.20
2022-12-18T17:49:11.564Z,6.78
2022-12-18T17:52:05.208Z,7.80
2022-12-18T17:54:57.749Z,7.68
2022-12-18T17:57:51.082Z,7.25
2022-12-18T18:00:44.136Z,6.88
2022-12-18T18:03:38.705Z,8.63
2022-12-18T18:06:34.860Z,6.75
2022-12-18T18:09:31.487Z,7.18
2022-12-18T18:12:42.487Z,8.05
2022-12-18T18:15:35.896Z,7.47
2022-12-18T18:18:31.325Z,9.45
2022-12-18T18:21:24.738Z,8.85
2022-12-18T18:24:23.246Z,7.60
2022-12-18T18:27:17.104Z,6.35
2022-12-18T18:30:11.943Z,6.40
2022-12-18T18:33:10.330Z,7.38
2022-12-18T18:36:05.725Z,6.75
2022-12-18T18:39:01.119Z,6.85
2022-12-18T18:41:55.354Z,6.65
2022-12-18T18:44:49.366Z,6.80
2022-12-18T18:47:43.107Z,7.80
2022-12-18T18:50:35.999Z,6.00
2022-12-18T18:53:29.784Z,6.10
2022-12-18T18:59:40.556Z,5.97
2022-12-18T19:02:34.031Z,7.13
2022-12-18T19:05:26.771Z,6.03
2022-12-18T19:08:19.778Z,5.93
2022-12-18T19:11:31.790Z,6.50
2022-12-18T19:14:28.893Z,6.30
2022-12-18T19:17:29.583Z,12.02
2022-12-18T19:20:23.741Z,6.57
2022-12-18T19:23:17.193Z,6.30
2022-12-18T19:26:27.592Z,6.97
2022-12-18T19:29:21.032Z,5.57
2022-12-18T19:32:14.028Z,6.20
2022-12-18T19:35:09.219Z,6.65
2022-12-18T19:38:03.047Z,7.25
2022-12-18T19:40:56.289Z,7.90
2022-12-18T19:43:50.652Z,9.75
2022-12-18T19:46:45.967Z,9.52
2022-12-18T19:49:39.587Z,8.40
2022-12-18T19:52:34.343Z,9.02
2022-12-18T19:55:28.486Z,11.98
2022-12-18T19:58:21.815Z,11.00
2022-12-18T20:01:18.509Z,12.45
2022-12-18T20:04:11.893Z,12.77
2022-12-18T20:07:04.722Z,11.85
2022-12-18T20:10:04.101Z,9.95
2022-12-18T20:13:02.180Z,8.77
2022-12-18T20:15:55.377Z,11.80
2022-12-18T20:18:49.432Z,9.90
2022-12-18T20:21:42.929Z,11.77
2022-12-18T20:24:36.073Z,11.18
2022-12-18T20:27:30.264Z,9.55
2022-12-18T20:30:23.079Z,9.95
2022-12-18T20:33:16.141Z,8.70
2022-12-18T20:36:13.601Z,9.32
2022-12-18T20:39:08.806Z,9.40
2022-12-18T20:42:03.116Z,12.07
2022-12-18T20:44:57.535Z,10.88
2022-12-18T20:47:51.131Z,12.50
2022-12-18T20:50:44.405Z,10.02
2022-12-18T20:53:41.773Z,9.52
2022-12-18T20:56:36.248Z,8.73
2022-12-18T20:59:28.974Z,9.82
2022-12-18T21:02:23.781Z,8.48
2022-12-18T21:05:17.399Z,10.85
2022-12-18T21:08:11.289Z,9.43
2022-12-18T21:11:35.302Z,11.88
2022-12-18T21:14:30.844Z,8.98
2022-12-18T21:17:25.983Z,9.35
2022-12-18T21:20:21.091Z,9.20
2022-12-18T21:23:16.633Z,10.30
2022-12-18T21:26:17.755Z,10.40
2022-12-18T21:29:13.889Z,10.05
2022-12-18T21:32:09.049Z,8.02
2022-12-18T21:35:03.712Z,9.90
2022-12-18T21:37:57.025Z,9.50
2022-12-18T21:40:50.322Z,9.00
2022-12-18T21:44:01.186Z,8.05
2022-12-18T21:46:58.372Z,9.20
2022-12-18T21:49:57.277Z,11.68
2022-12-18T21:52:51.660Z,10.90
2022-12-18T21:55:45.849Z,9.27
2022-12-18T21:58:39.054Z,10.52
2022-12-18T22:01:52.237Z,7.80
2022-12-18T22:04:46.043Z,9.38
2022-12-18T22:07:40.566Z,9.15
2022-12-18T22:10:35.508Z,10.82
2022-12-18T22:13:29.250Z,11.85
2022-12-18T22:16:22.587Z,8.73
2022-12-18T22:19:16.119Z,10.68
2022-12-18T22:22:08.972Z,7.95
2022-12-18T22:25:02.309Z,8.07
2022-12-18T22:28:13.790Z,10.27
2022-12-18T22:31:07.363Z,7.30
2022-12-18T22:34:01.949Z,9.63
2022-12-18T22:36:55.038Z,9.38
2022-12-18T22:39:48.268Z,8.07
2022-12-18T22:42:42.175Z,7.90
2022-12-18T22:45:38.395Z,8.52
2022-12-18T22:48:32.287Z,9.75
2022-12-18T22:51:25.758Z,9.48
2022-12-18T22:54:19.434Z,9.75
2022-12-18T22:57:13.377Z,13.10
2022-12-18T23:00:09.882Z,12.02
2022-12-18T23:03:04.902Z,12.07
2022-12-18T23:06:05.334Z,12.55
2022-12-18T23:08:58.573Z,10.93
2022-12-18T23:11:52.157Z,10.13
2022-12-18T23:14:45.450Z,10.35
2022-12-18T23:17:39.111Z,10.05
2022-12-18T23:20:33.651Z,9.35
2022-12-18T23:23:27.070Z,12.70
2022-12-18T23:26:23.380Z,9.25
2022-12-18T23:29:16.276Z,9.40
2022-12-18T23:32:09.423Z,9.20
2022-12-18T23:35:02.311Z,8.18
2022-12-18T23:37:58.970Z,9.13
2022-12-18T23:40:53.156Z,10.65
2022-12-18T23:43:50.550Z,8.10
2022-12-18T23:46:44.299Z,9.73
2022-12-18T23:49:37.303Z,9.05
2022-12-18T23:52:30.415Z,8.35
2022-12-18T23:55:24.782Z,8.38
2022-12-18T23:58:20.479Z,9.00
